sensor_id;sensor_type;location;lat;lon;timestamp;P1;durP1;ratioP1;P2;durP2;ratioP2
69034;SDS011;56091;55.756;37.412;2023-08-08T00:02:19;9.57;;;3.80;;
69034;SDS011;56091;55.756;37.412;2023-08-08T00:07:20;7.07;;;3.90;;
69034;SDS011;56091;55.756;37.412;2023-08-08T00:12:20;9.20;;;4.15;;
69034;SDS011;56091;55.756;37.412;2023-08-08T00:17:23;9.27;;;3.90;;
69034;SDS011;56091;55.756;37.412;2023-08-08T00:22:24;8.17;;;3.77;;
69034;SDS011;56091;55.756;37.412;2023-08-08T00:27:25;8.02;;;3.50;;
69034;SDS011;56091;55.756;37.412;2023-08-08T00:32:34;11.97;;;3.83;;
69034;SDS011;56091;55.756;37.412;2023-08-08T00:37:34;7.55;;;3.60;;
69034;SDS011;56091;55.756;37.412;2023-08-08T00:42:35;8.73;;;3.87;;
69034;SDS011;56091;55.756;37.412;2023-08-08T00:47:37;10.50;;;3.57;;
69034;SDS011;56091;55.756;37.412;2023-08-08T00:52:37;10.63;;;3.95;;
69034;SDS011;56091;55.756;37.412;2023-08-08T00:57:40;11.00;;;3.57;;
69034;SDS011;56091;55.756;37.412;2023-08-08T01:02:41;8.98;;;3.70;;
69034;SDS011;56091;55.756;37.412;2023-08-08T01:07:52;9.63;;;3.53;;
69034;SDS011;56091;55.756;37.412;2023-08-08T01:13:04;10.27;;;3.80;;
69034;SDS011;56091;55.756;37.412;2023-08-08T01:18:06;11.47;;;3.90;;
69034;SDS011;56091;55.756;37.412;2023-08-08T01:23:12;9.90;;;4.00;;
69034;SDS011;56091;55.756;37.412;2023-08-08T01:28:15;9.30;;;3.93;;
69034;SDS011;56091;55.756;37.412;2023-08-08T01:33:16;9.02;;;4.03;;
69034;SDS011;56091;55.756;37.412;2023-08-08T01:38:38;9.27;;;4.20;;
69034;SDS011;56091;55.756;37.412;2023-08-08T01:43:38;11.57;;;4.05;;
69034;SDS011;56091;55.756;37.412;2023-08-08T01:48:38;9.30;;;4.43;;
69034;SDS011;56091;55.756;37.412;2023-08-08T01:53:39;8.63;;;4.17;;
69034;SDS011;56091;55.756;37.412;2023-08-08T01:58:40;8.85;;;4.25;;
69034;SDS011;56091;55.756;37.412;2023-08-08T02:03:42;8.13;;;4.17;;
69034;SDS011;56091;55.756;37.412;2023-08-08T02:08:45;8.55;;;4.30;;
69034;SDS011;56091;55.756;37.412;2023-08-08T02:13:45;7.50;;;4.00;;
69034;SDS011;56091;55.756;37.412;2023-08-08T02:18:46;8.98;;;4.50;;
69034;SDS011;56091;55.756;37.412;2023-08-08T02:23:50;11.23;;;4.40;;
69034;SDS011;56091;55.756;37.412;2023-08-08T02:28:53;9.75;;;4.18;;
69034;SDS011;56091;55.756;37.412;2023-08-08T02:33:54;11.47;;;4.63;;
69034;SDS011;56091;55.756;37.412;2023-08-08T02:38:55;9.80;;;4.30;;
69034;SDS011;56091;55.756;37.412;2023-08-08T02:43:56;8.90;;;4.10;;
69034;SDS011;56091;55.756;37.412;2023-08-08T02:48:57;7.67;;;4.27;;
69034;SDS011;56091;55.756;37.412;2023-08-08T02:54:01;8.75;;;4.07;;
69034;SDS011;56091;55.756;37.412;2023-08-08T02:59:04;7.80;;;4.30;;
69034;SDS011;56091;55.756;37.412;2023-08-08T03:04:06;9.07;;;4.60;;
69034;SDS011;56091;55.756;37.412;2023-08-08T03:09:06;11.10;;;4.10;;
69034;SDS011;56091;55.756;37.412;2023-08-08T03:14:09;8.98;;;4.32;;
69034;SDS011;56091;55.756;37.412;2023-08-08T03:19:11;7.87;;;4.37;;
69034;SDS011;56091;55.756;37.412;2023-08-08T03:24:13;11.75;;;4.22;;
69034;SDS011;56091;55.756;37.412;2023-08-08T03:29:17;9.90;;;4.57;;
69034;SDS011;56091;55.756;37.412;2023-08-08T03:34:21;6.85;;;4.32;;
69034;SDS011;56091;55.756;37.412;2023-08-08T03:39:32;8.53;;;4.30;;
69034;SDS011;56091;55.756;37.412;2023-08-08T03:44:33;7.72;;;4.35;;
69034;SDS011;56091;55.756;37.412;2023-08-08T03:49:34;9.27;;;4.33;;
69034;SDS011;56091;55.756;37.412;2023-08-08T03:54:35;11.18;;;4.57;;
69034;SDS011;56091;55.756;37.412;2023-08-08T03:59:36;8.67;;;4.50;;
69034;SDS011;56091;55.756;37.412;2023-08-08T04:04:37;11.83;;;4.93;;
69034;SDS011;56091;55.756;37.412;2023-08-08T04:09:39;10.35;;;4.70;;
69034;SDS011;56091;55.756;37.412;2023-08-08T04:14:39;13.20;;;4.80;;
69034;SDS011;56091;55.756;37.412;2023-08-08T04:19:40;9.65;;;4.70;;
69034;SDS011;56091;55.756;37.412;2023-08-08T04:24:41;10.03;;;4.90;;
69034;SDS011;56091;55.756;37.412;2023-08-08T04:29:42;9.57;;;4.70;;
69034;SDS011;56091;55.756;37.412;2023-08-08T04:34:46;10.48;;;4.80;;
69034;SDS011;56091;55.756;37.412;2023-08-08T04:39:47;11.30;;;4.40;;
69034;SDS011;56091;55.756;37.412;2023-08-08T04:44:48;10.13;;;4.63;;
69034;SDS011;56091;55.756;37.412;2023-08-08T04:49:48;11.30;;;4.70;;
69034;SDS011;56091;55.756;37.412;2023-08-08T04:54:49;10.27;;;5.17;;
69034;SDS011;56091;55.756;37.412;2023-08-08T04:59:50;10.55;;;4.45;;
69034;SDS011;56091;55.756;37.412;2023-08-08T05:04:50;10.43;;;4.63;;
69034;SDS011;56091;55.756;37.412;2023-08-08T05:09:55;11.83;;;4.93;;
69034;SDS011;56091;55.756;37.412;2023-08-08T05:14:55;11.25;;;4.75;;
69034;SDS011;56091;55.756;37.412;2023-08-08T05:19:57;11.27;;;5.10;;
69034;SDS011;56091;55.756;37.412;2023-08-08T05:24:58;9.57;;;5.30;;
69034;SDS011;56091;55.756;37.412;2023-08-08T05:29:59;12.60;;;4.90;;
69034;SDS011;56091;55.756;37.412;2023-08-08T05:35:00;9.87;;;4.80;;
69034;SDS011;56091;55.756;37.412;2023-08-08T05:40:01;10.07;;;5.60;;
69034;SDS011;56091;55.756;37.412;2023-08-08T05:45:04;15.50;;;5.53;;
69034;SDS011;56091;55.756;37.412;2023-08-08T05:50:06;11.53;;;5.57;;
69034;SDS011;56091;55.756;37.412;2023-08-08T05:55:08;9.25;;;4.90;;
69034;SDS011;56091;55.756;37.412;2023-08-08T06:00:08;9.87;;;4.90;;
69034;SDS011;56091;55.756;37.412;2023-08-08T06:05:16;10.18;;;5.30;;
69034;SDS011;56091;55.756;37.412;2023-08-08T06:10:17;9.90;;;5.10;;
69034;SDS011;56091;55.756;37.412;2023-08-08T06:15:23;11.55;;;5.40;;
69034;SDS011;56091;55.756;37.412;2023-08-08T06:20:24;12.10;;;5.40;;
69034;SDS011;56091;55.756;37.412;2023-08-08T06:25:24;21.03;;;5.37;;
69034;SDS011;56091;55.756;37.412;2023-08-08T06:30:25;11.20;;;5.80;;
69034;SDS011;56091;55.756;37.412;2023-08-08T06:35:26;13.50;;;5.57;;
69034;SDS011;56091;55.756;37.412;2023-08-08T06:40:27;12.23;;;5.37;;
69034;SDS011;56091;55.756;37.412;2023-08-08T06:45:27;12.57;;;5.68;;
69034;SDS011;56091;55.756;37.412;2023-08-08T06:50:29;10.33;;;5.60;;
69034;SDS011;56091;55.756;37.412;2023-08-08T06:55:30;15.18;;;5.40;;
69034;SDS011;56091;55.756;37.412;2023-08-08T07:00:30;11.20;;;5.40;;
69034;SDS011;56091;55.756;37.412;2023-08-08T07:05:31;12.87;;;5.83;;
69034;SDS011;56091;55.756;37.412;2023-08-08T07:10:31;12.10;;;5.47;;
69034;SDS011;56091;55.756;37.412;2023-08-08T07:15:32;14.02;;;5.70;;
69034;SDS011;56091;55.756;37.412;2023-08-08T07:20:33;14.67;;;5.93;;
69034;SDS011;56091;55.756;37.412;2023-08-08T07:25:34;18.30;;;6.67;;
69034;SDS011;56091;55.756;37.412;2023-08-08T07:30:35;13.05;;;6.15;;
69034;SDS011;56091;55.756;37.412;2023-08-08T07:35:38;12.77;;;6.43;;
69034;SDS011;56091;55.756;37.412;2023-08-08T07:40:39;14.23;;;5.80;;
69034;SDS011;56091;55.756;37.412;2023-08-08T07:45:43;13.37;;;6.47;;
69034;SDS011;56091;55.756;37.412;2023-08-08T07:50:43;14.65;;;6.88;;
69034;SDS011;56091;55.756;37.412;2023-08-08T07:55:44;13.43;;;6.53;;
69034;SDS011;56091;55.756;37.412;2023-08-08T08:00:45;19.33;;;6.40;;
69034;SDS011;56091;55.756;37.412;2023-08-08T08:05:45;14.23;;;6.10;;
69034;SDS011;56091;55.756;37.412;2023-08-08T08:10:46;17.27;;;6.10;;
69034;SDS011;56091;55.756;37.412;2023-08-08T08:15:48;12.25;;;6.90;;
69034;SDS011;56091;55.756;37.412;2023-08-08T08:20:49;16.80;;;7.20;;
69034;SDS011;56091;55.756;37.412;2023-08-08T08:25:50;12.47;;;7.00;;
69034;SDS011;56091;55.756;37.412;2023-08-08T08:30:51;15.15;;;7.50;;
69034;SDS011;56091;55.756;37.412;2023-08-08T08:35:51;13.80;;;7.37;;
69034;SDS011;56091;55.756;37.412;2023-08-08T08:40:53;16.42;;;8.30;;
69034;SDS011;56091;55.756;37.412;2023-08-08T08:45:54;14.40;;;7.87;;
69034;SDS011;56091;55.756;37.412;2023-08-08T08:50:55;15.80;;;8.02;;
69034;SDS011;56091;55.756;37.412;2023-08-08T08:55:58;15.03;;;7.63;;
69034;SDS011;56091;55.756;37.412;2023-08-08T09:01:00;15.75;;;7.43;;
69034;SDS011;56091;55.756;37.412;2023-08-08T09:06:01;27.87;;;8.93;;
69034;SDS011;56091;55.756;37.412;2023-08-08T09:11:03;18.55;;;9.60;;
69034;SDS011;56091;55.756;37.412;2023-08-08T09:16:04;19.50;;;10.10;;
69034;SDS011;56091;55.756;37.412;2023-08-08T09:21:05;16.83;;;8.38;;
69034;SDS011;56091;55.756;37.412;2023-08-08T09:26:06;16.37;;;8.27;;
69034;SDS011;56091;55.756;37.412;2023-08-08T09:31:07;15.37;;;7.57;;
69034;SDS011;56091;55.756;37.412;2023-08-08T09:36:07;16.55;;;7.88;;
69034;SDS011;56091;55.756;37.412;2023-08-08T09:41:08;20.50;;;8.70;;
69034;SDS011;56091;55.756;37.412;2023-08-08T09:46:09;18.73;;;8.17;;
69034;SDS011;56091;55.756;37.412;2023-08-08T09:51:09;19.67;;;9.02;;
69034;SDS011;56091;55.756;37.412;2023-08-08T09:56:10;14.40;;;8.47;;
69034;SDS011;56091;55.756;37.412;2023-08-08T10:01:11;17.38;;;8.68;;
69034;SDS011;56091;55.756;37.412;2023-08-08T10:06:14;17.13;;;8.17;;
69034;SDS011;56091;55.756;37.412;2023-08-08T10:11:15;16.30;;;8.02;;
69034;SDS011;56091;55.756;37.412;2023-08-08T10:16:16;17.00;;;8.30;;
69034;SDS011;56091;55.756;37.412;2023-08-08T10:21:18;17.42;;;8.23;;
69034;SDS011;56091;55.756;37.412;2023-08-08T10:26:19;16.93;;;8.50;;
69034;SDS011;56091;55.756;37.412;2023-08-08T10:31:20;16.47;;;7.83;;
69034;SDS011;56091;55.756;37.412;2023-08-08T10:36:21;17.67;;;8.98;;
69034;SDS011;56091;55.756;37.412;2023-08-08T10:41:26;17.17;;;8.77;;
69034;SDS011;56091;55.756;37.412;2023-08-08T10:46:30;19.17;;;9.32;;
69034;SDS011;56091;55.756;37.412;2023-08-08T10:51:32;18.53;;;8.83;;
69034;SDS011;56091;55.756;37.412;2023-08-08T10:56:36;19.02;;;8.63;;
69034;SDS011;56091;55.756;37.412;2023-08-08T11:01:41;17.57;;;8.60;;
69034;SDS011;56091;55.756;37.412;2023-08-08T11:06:42;17.75;;;8.98;;
69034;SDS011;56091;55.756;37.412;2023-08-08T11:11:43;17.97;;;8.63;;
69034;SDS011;56091;55.756;37.412;2023-08-08T11:16:44;18.40;;;8.95;;
69034;SDS011;56091;55.756;37.412;2023-08-08T11:21:46;15.87;;;8.43;;
69034;SDS011;56091;55.756;37.412;2023-08-08T11:26:46;19.10;;;9.10;;
69034;SDS011;56091;55.756;37.412;2023-08-08T11:31:48;22.23;;;8.80;;
69034;SDS011;56091;55.756;37.412;2023-08-08T11:36:48;17.42;;;8.38;;
69034;SDS011;56091;55.756;37.412;2023-08-08T11:41:49;21.97;;;8.30;;
69034;SDS011;56091;55.756;37.412;2023-08-08T11:46:50;15.47;;;8.33;;
69034;SDS011;56091;55.756;37.412;2023-08-08T11:51:50;18.42;;;9.45;;
69034;SDS011;56091;55.756;37.412;2023-08-08T11:56:56;21.47;;;8.67;;
69034;SDS011;56091;55.756;37.412;2023-08-08T12:01:56;21.70;;;9.40;;
69034;SDS011;56091;55.756;37.412;2023-08-08T12:07:00;18.77;;;8.98;;
69034;SDS011;56091;55.756;37.412;2023-08-08T12:12:02;17.97;;;9.73;;
69034;SDS011;56091;55.756;37.412;2023-08-08T12:17:03;22.77;;;9.82;;
69034;SDS011;56091;55.756;37.412;2023-08-08T12:22:04;22.93;;;10.67;;
69034;SDS011;56091;55.756;37.412;2023-08-08T12:27:04;20.27;;;10.90;;
69034;SDS011;56091;55.756;37.412;2023-08-08T12:32:05;19.60;;;9.97;;
69034;SDS011;56091;55.756;37.412;2023-08-08T12:37:08;21.27;;;9.37;;
69034;SDS011;56091;55.756;37.412;2023-08-08T12:42:10;17.98;;;9.93;;
69034;SDS011;56091;55.756;37.412;2023-08-08T12:47:11;17.27;;;9.57;;
69034;SDS011;56091;55.756;37.412;2023-08-08T12:52:11;20.65;;;9.60;;
69034;SDS011;56091;55.756;37.412;2023-08-08T12:57:12;25.53;;;11.10;;
69034;SDS011;56091;55.756;37.412;2023-08-08T13:02:13;16.47;;;10.30;;
69034;SDS011;56091;55.756;37.412;2023-08-08T13:07:13;19.83;;;9.57;;
69034;SDS011;56091;55.756;37.412;2023-08-08T13:12:17;15.33;;;9.17;;
69034;SDS011;56091;55.756;37.412;2023-08-08T13:17:17;18.67;;;10.32;;
69034;SDS011;56091;55.756;37.412;2023-08-08T13:22:18;23.13;;;10.80;;
69034;SDS011;56091;55.756;37.412;2023-08-08T13:27:19;19.33;;;10.50;;
69034;SDS011;56091;55.756;37.412;2023-08-08T13:32:19;17.67;;;9.93;;
69034;SDS011;56091;55.756;37.412;2023-08-08T13:37:20;24.80;;;10.35;;
69034;SDS011;56091;55.756;37.412;2023-08-08T13:42:21;18.20;;;11.43;;
69034;SDS011;56091;55.756;37.412;2023-08-08T13:47:21;17.58;;;10.35;;
69034;SDS011;56091;55.756;37.412;2023-08-08T13:52:22;23.60;;;12.27;;
69034;SDS011;56091;55.756;37.412;2023-08-08T13:57:23;18.90;;;11.13;;
69034;SDS011;56091;55.756;37.412;2023-08-08T14:02:24;20.95;;;11.32;;
69034;SDS011;56091;55.756;37.412;2023-08-08T14:07:24;20.77;;;11.37;;
69034;SDS011;56091;55.756;37.412;2023-08-08T14:12:25;23.20;;;11.25;;
69034;SDS011;56091;55.756;37.412;2023-08-08T14:17:26;21.13;;;11.90;;
69034;SDS011;56091;55.756;37.412;2023-08-08T14:22:27;19.77;;;10.93;;
69034;SDS011;56091;55.756;37.412;2023-08-08T14:27:28;17.30;;;10.48;;
69034;SDS011;56091;55.756;37.412;2023-08-08T14:32:29;17.23;;;9.47;;
69034;SDS011;56091;55.756;37.412;2023-08-08T14:37:31;13.45;;;8.02;;
69034;SDS011;56091;55.756;37.412;2023-08-08T14:42:31;17.27;;;8.13;;
69034;SDS011;56091;55.756;37.412;2023-08-08T14:47:32;16.15;;;8.20;;
69034;SDS011;56091;55.756;37.412;2023-08-08T14:52:33;11.13;;;7.17;;
69034;SDS011;56091;55.756;37.412;2023-08-08T14:57:34;15.25;;;7.50;;
69034;SDS011;56091;55.756;37.412;2023-08-08T15:02:35;13.73;;;6.63;;
69034;SDS011;56091;55.756;37.412;2023-08-08T15:07:38;12.97;;;6.00;;
69034;SDS011;56091;55.756;37.412;2023-08-08T15:12:39;10.70;;;5.82;;
69034;SDS011;56091;55.756;37.412;2023-08-08T15:17:41;12.47;;;5.73;;
69034;SDS011;56091;55.756;37.412;2023-08-08T15:22:44;10.63;;;5.20;;
69034;SDS011;56091;55.756;37.412;2023-08-08T15:27:45;10.10;;;5.23;;
69034;SDS011;56091;55.756;37.412;2023-08-08T15:32:46;10.07;;;4.72;;
69034;SDS011;56091;55.756;37.412;2023-08-08T15:37:47;7.80;;;4.50;;
69034;SDS011;56091;55.756;37.412;2023-08-08T15:42:48;8.77;;;4.23;;
69034;SDS011;56091;55.756;37.412;2023-08-08T15:47:49;12.05;;;3.72;;
69034;SDS011;56091;55.756;37.412;2023-08-08T15:52:51;9.13;;;3.20;;
69034;SDS011;56091;55.756;37.412;2023-08-08T15:57:55;7.07;;;3.63;;
69034;SDS011;56091;55.756;37.412;2023-08-08T16:02:55;7.43;;;3.57;;
69034;SDS011;56091;55.756;37.412;2023-08-08T16:07:56;9.15;;;3.25;;
69034;SDS011;56091;55.756;37.412;2023-08-08T16:12:57;8.53;;;3.47;;
69034;SDS011;56091;55.756;37.412;2023-08-08T16:17:58;8.00;;;3.57;;
69034;SDS011;56091;55.756;37.412;2023-08-08T16:22:58;10.57;;;3.30;;
69034;SDS011;56091;55.756;37.412;2023-08-08T16:27:59;5.85;;;3.20;;
69034;SDS011;56091;55.756;37.412;2023-08-08T16:33:00;7.97;;;3.47;;
69034;SDS011;56091;55.756;37.412;2023-08-08T16:38:03;7.67;;;2.90;;
69034;SDS011;56091;55.756;37.412;2023-08-08T16:43:04;7.30;;;3.00;;
69034;SDS011;56091;55.756;37.412;2023-08-08T16:48:04;5.87;;;2.90;;
69034;SDS011;56091;55.756;37.412;2023-08-08T16:53:09;7.90;;;3.60;;
69034;SDS011;56091;55.756;37.412;2023-08-08T16:58:10;8.47;;;3.27;;
69034;SDS011;56091;55.756;37.412;2023-08-08T17:03:10;6.63;;;3.03;;
69034;SDS011;56091;55.756;37.412;2023-08-08T17:08:14;8.93;;;2.50;;
69034;SDS011;56091;55.756;37.412;2023-08-08T17:13:15;6.07;;;2.37;;
69034;SDS011;56091;55.756;37.412;2023-08-08T17:18:15;7.77;;;2.70;;
69034;SDS011;56091;55.756;37.412;2023-08-08T17:23:16;5.10;;;2.47;;
69034;SDS011;56091;55.756;37.412;2023-08-08T17:28:17;6.60;;;2.73;;
69034;SDS011;56091;55.756;37.412;2023-08-08T17:33:17;5.20;;;2.40;;
69034;SDS011;56091;55.756;37.412;2023-08-08T17:38:19;7.63;;;2.70;;
69034;SDS011;56091;55.756;37.412;2023-08-08T17:43:19;6.63;;;2.47;;
69034;SDS011;56091;55.756;37.412;2023-08-08T17:48:20;7.53;;;2.87;;
69034;SDS011;56091;55.756;37.412;2023-08-08T17:53:20;11.30;;;3.07;;
69034;SDS011;56091;55.756;37.412;2023-08-08T17:58:21;10.52;;;2.60;;
69034;SDS011;56091;55.756;37.412;2023-08-08T18:03:25;12.63;;;2.87;;
69034;SDS011;56091;55.756;37.412;2023-08-08T18:08:26;12.27;;;2.60;;
69034;SDS011;56091;55.756;37.412;2023-08-08T18:13:27;7.60;;;2.70;;
69034;SDS011;56091;55.756;37.412;2023-08-08T18:18:28;6.90;;;3.23;;
69034;SDS011;56091;55.756;37.412;2023-08-08T18:23:29;7.13;;;2.45;;
69034;SDS011;56091;55.756;37.412;2023-08-08T18:28:31;6.77;;;2.80;;
69034;SDS011;56091;55.756;37.412;2023-08-08T18:33:31;9.48;;;2.30;;
69034;SDS011;56091;55.756;37.412;2023-08-08T18:38:32;8.80;;;2.70;;
69034;SDS011;56091;55.756;37.412;2023-08-08T18:43:33;6.10;;;2.80;;
69034;SDS011;56091;55.756;37.412;2023-08-08T18:48:40;6.50;;;2.50;;
69034;SDS011;56091;55.756;37.412;2023-08-08T18:53:42;5.60;;;2.50;;
69034;SDS011;56091;55.756;37.412;2023-08-08T18:58:42;5.93;;;2.77;;
69034;SDS011;56091;55.756;37.412;2023-08-08T19:03:43;7.73;;;2.77;;
69034;SDS011;56091;55.756;37.412;2023-08-08T19:08:45;7.05;;;3.30;;
69034;SDS011;56091;55.756;37.412;2023-08-08T19:13:45;8.67;;;3.10;;
69034;SDS011;56091;55.756;37.412;2023-08-08T19:18:46;7.03;;;2.83;;
69034;SDS011;56091;55.756;37.412;2023-08-08T19:23:47;6.73;;;3.03;;
69034;SDS011;56091;55.756;37.412;2023-08-08T19:28:48;10.03;;;2.90;;
69034;SDS011;56091;55.756;37.412;2023-08-08T19:33:49;8.77;;;2.70;;
69034;SDS011;56091;55.756;37.412;2023-08-08T19:38:49;7.77;;;3.10;;
69034;SDS011;56091;55.756;37.412;2023-08-08T19:43:50;10.93;;;3.20;;
69034;SDS011;56091;55.756;37.412;2023-08-08T19:48:51;6.60;;;2.70;;
69034;SDS011;56091;55.756;37.412;2023-08-08T19:53:51;9.20;;;2.90;;
69034;SDS011;56091;55.756;37.412;2023-08-08T19:58:52;6.67;;;3.00;;
69034;SDS011;56091;55.756;37.412;2023-08-08T20:03:59;7.80;;;3.10;;
69034;SDS011;56091;55.756;37.412;2023-08-08T20:08:59;8.20;;;3.43;;
69034;SDS011;56091;55.756;37.412;2023-08-08T20:14:00;8.75;;;2.90;;
69034;SDS011;56091;55.756;37.412;2023-08-08T20:19:01;10.33;;;3.50;;
69034;SDS011;56091;55.756;37.412;2023-08-08T20:24:02;8.90;;;2.97;;
69034;SDS011;56091;55.756;37.412;2023-08-08T20:29:02;7.78;;;3.20;;
69034;SDS011;56091;55.756;37.412;2023-08-08T20:34:03;9.57;;;3.30;;
69034;SDS011;56091;55.756;37.412;2023-08-08T20:39:04;8.50;;;2.97;;
69034;SDS011;56091;55.756;37.412;2023-08-08T20:44:07;6.60;;;2.83;;
69034;SDS011;56091;55.756;37.412;2023-08-08T20:49:08;8.17;;;2.83;;
69034;SDS011;56091;55.756;37.412;2023-08-08T20:54:08;7.87;;;2.53;;
69034;SDS011;56091;55.756;37.412;2023-08-08T20:59:09;8.63;;;2.57;;
69034;SDS011;56091;55.756;37.412;2023-08-08T21:04:10;7.63;;;2.38;;
69034;SDS011;56091;55.756;37.412;2023-08-08T21:09:14;7.23;;;2.70;;
69034;SDS011;56091;55.756;37.412;2023-08-08T21:14:15;9.30;;;2.45;;
69034;SDS011;56091;55.756;37.412;2023-08-08T21:19:16;11.07;;;2.50;;
69034;SDS011;56091;55.756;37.412;2023-08-08T21:24:16;6.77;;;2.57;;
69034;SDS011;56091;55.756;37.412;2023-08-08T21:29:17;6.03;;;2.70;;
69034;SDS011;56091;55.756;37.412;2023-08-08T21:34:23;7.63;;;2.70;;
69034;SDS011;56091;55.756;37.412;2023-08-08T21:39:24;6.10;;;2.43;;
69034;SDS011;56091;55.756;37.412;2023-08-08T21:44:27;7.13;;;2.50;;
69034;SDS011;56091;55.756;37.412;2023-08-08T21:49:28;6.20;;;2.50;;
69034;SDS011;56091;55.756;37.412;2023-08-08T21:54:28;5.70;;;2.10;;
69034;SDS011;56091;55.756;37.412;2023-08-08T21:59:29;8.77;;;2.65;;
69034;SDS011;56091;55.756;37.412;2023-08-08T22:04:30;6.73;;;2.53;;
69034;SDS011;56091;55.756;37.412;2023-08-08T22:09:30;4.97;;;2.20;;
69034;SDS011;56091;55.756;37.412;2023-08-08T22:14:31;6.60;;;2.00;;
69034;SDS011;56091;55.756;37.412;2023-08-08T22:19:32;7.30;;;2.00;;
69034;SDS011;56091;55.756;37.412;2023-08-08T22:24:32;7.30;;;2.10;;
69034;SDS011;56091;55.756;37.412;2023-08-08T22:29:33;5.57;;;2.30;;
69034;SDS011;56091;55.756;37.412;2023-08-08T22:34:41;5.70;;;2.00;;
69034;SDS011;56091;55.756;37.412;2023-08-08T22:39:42;7.22;;;1.88;;
69034;SDS011;56091;55.756;37.412;2023-08-08T22:44:42;6.80;;;1.90;;
69034;SDS011;56091;55.756;37.412;2023-08-08T22:49:43;5.63;;;1.83;;
69034;SDS011;56091;55.756;37.412;2023-08-08T22:54:44;4.73;;;1.60;;
69034;SDS011;56091;55.756;37.412;2023-08-08T22:59:44;4.47;;;1.60;;
69034;SDS011;56091;55.756;37.412;2023-08-08T23:04:45;4.20;;;1.70;;
69034;SDS011;56091;55.756;37.412;2023-08-08T23:09:47;5.03;;;1.63;;
69034;SDS011;56091;55.756;37.412;2023-08-08T23:14:48;8.83;;;1.70;;
69034;SDS011;56091;55.756;37.412;2023-08-08T23:19:52;4.40;;;1.65;;
69034;SDS011;56091;55.756;37.412;2023-08-08T23:24:53;4.97;;;1.73;;
69034;SDS011;56091;55.756;37.412;2023-08-08T23:29:53;6.03;;;1.77;;
69034;SDS011;56091;55.756;37.412;2023-08-08T23:34:55;5.03;;;1.63;;
69034;SDS011;56091;55.756;37.412;2023-08-08T23:39:56;4.50;;;1.80;;
69034;SDS011;56091;55.756;37.412;2023-08-08T23:44:57;5.78;;;1.70;;
69034;SDS011;56091;55.756;37.412;2023-08-08T23:49:58;5.27;;;1.60;;
69034;SDS011;56091;55.756;37.412;2023-08-08T23:55:04;4.72;;;1.70;;
